Terminal Aerodrome Forecast
Issued by NWS

Home | Current Version | Previous Version | Text Only | Print | Product List | Glossary On
Versions: 1 2 3 4 5 6 7 8 9 10 11 12 13 14 15 16 17 18 19 20 21 22 23 24 25 26 27 28
000
FTUS41 KBOX 291132
TAFBAF
TAF
KBAF 291132Z 2912/3012 00000KT P6SM -SHRA OVC100
     FM291900 03005KT P6SM VCSH BKN070
     FM300000 01004KT P6SM BKN250
     FM300700 VRB03KT 4SM BR SCT150
     FM301100 VRB03KT P6SM SCT130=

USA.gov is the U.S. government's official web portal to all federal, state and local government web resources and services.